Bremerton National Airport Bremerton US
ICAO: KPWT
IATA: PWT
Category: Medium
Scheduled Services: No

Elevation: 444 ft
TransAlt. 18000 ft.

Airport Communications:
SEATTLE APP/DEP:127.1
AWOS 3:121.2
CTAF/UNICOM:123.05

KPWT Zoom In..

Runways:

(A) RW 02 length 6000 ft width 150 ft
---- / hdg 17

(B) RW 20 length 6000 ft width 150 ft
ILS 111.10 / hdg 197

Location; KPWT
Day. 22 / Time. 23.56 Zulu
* Altimeter: 30.28
* Temperature: 06° c. 42.8°f.
* Wind from: 180° Speed 07 kn.
Dewpoint: 04° c.
Visibility: 10 Statute Miles.
Clouds: Clear (automated report).

KPWT 222356Z AUTO 18007KT 10SM CLR 06/04 A3028 RMK AO2 SLP271 T00610039 10078 20050 53004


Wind From 180°
Speed 07 kn.

YouTube Music Video
 
jpsmedia.com for Web Design  worldairports.se 2018   terms of use